createdAt,value
2023-04-10T00:00:58.078Z,9.10
2023-04-10T00:01:57.877Z,9.20
2023-04-10T00:02:57.936Z,8.70
2023-04-10T00:03:58.211Z,9.20
2023-04-10T00:04:57.735Z,9.80
2023-04-10T00:05:57.698Z,11.30
2023-04-10T00:06:57.684Z,9.90
2023-04-10T00:07:57.700Z,9.30
2023-04-10T00:08:57.686Z,9.20
2023-04-10T00:09:57.666Z,9.60
2023-04-10T00:10:57.633Z,9.40
2023-04-10T00:11:57.668Z,10.00
2023-04-10T00:12:57.626Z,8.70
2023-04-10T00:13:57.630Z,9.20
2023-04-10T00:14:57.610Z,9.80
2023-04-10T00:15:57.604Z,8.80
2023-04-10T00:16:57.656Z,10.50
2023-04-10T00:17:57.586Z,9.00
2023-04-10T00:18:57.586Z,9.60
2023-04-10T00:19:57.562Z,9.50
2023-04-10T00:20:57.549Z,11.00
2023-04-10T00:21:57.587Z,9.00
2023-04-10T00:22:57.545Z,9.90
2023-04-10T00:23:57.554Z,9.80
2023-04-10T00:24:57.527Z,10.10
2023-04-10T00:25:57.503Z,9.40
2023-04-10T00:26:57.526Z,8.90
2023-04-10T00:27:57.504Z,8.80
2023-04-10T00:28:57.461Z,10.90
2023-04-10T00:29:57.451Z,9.00
2023-04-10T00:30:57.424Z,9.20
2023-04-10T00:31:57.495Z,9.40
2023-04-10T00:32:57.487Z,9.40
2023-04-10T00:34:05.359Z,9.60
2023-04-10T00:34:57.424Z,11.20
2023-04-10T00:35:57.412Z,9.50
2023-04-10T00:36:57.487Z,8.70
2023-04-10T00:37:57.425Z,9.20
2023-04-10T00:38:57.379Z,10.20
2023-04-10T00:39:57.335Z,9.60
2023-04-10T00:40:57.321Z,9.30
2023-04-10T00:41:57.344Z,10.40
2023-04-10T00:42:57.315Z,9.60
2023-04-10T00:43:57.309Z,10.30
2023-04-10T00:44:57.299Z,8.90
2023-04-10T00:45:57.340Z,9.40
2023-04-10T00:46:57.277Z,9.30
2023-04-10T00:47:57.355Z,9.00
2023-04-10T00:48:57.324Z,11.60
2023-04-10T00:49:57.260Z,10.70
2023-04-10T00:50:57.215Z,9.50
2023-04-10T00:51:58.462Z,10.60
2023-04-10T00:52:57.209Z,11.20
2023-04-10T00:53:57.541Z,9.50
2023-04-10T00:54:57.210Z,9.30
2023-04-10T00:55:57.168Z,10.10
2023-04-10T00:56:57.186Z,9.30
2023-04-10T00:57:57.161Z,9.80
2023-04-10T00:58:57.161Z,10.00
2023-04-10T00:59:57.137Z,9.10
2023-04-10T01:00:57.171Z,8.30
2023-04-10T01:01:57.159Z,9.90
2023-04-10T01:02:57.218Z,10.70
2023-04-10T01:03:57.288Z,10.40
2023-04-10T01:04:57.086Z,11.00
2023-04-10T01:05:57.073Z,9.80
2023-04-10T01:06:57.060Z,8.80
2023-04-10T01:07:57.072Z,9.90
2023-04-10T01:08:57.062Z,10.80
2023-04-10T01:09:57.044Z,10.40
2023-04-10T01:10:57.006Z,11.20
2023-04-10T01:11:57.006Z,11.20
2023-04-10T01:12:56.986Z,11.50
2023-04-10T01:13:57.011Z,10.40
2023-04-10T01:14:56.997Z,11.00
2023-04-10T01:15:56.982Z,9.10
2023-04-10T01:16:56.995Z,10.50
2023-04-10T01:17:56.944Z,8.10
2023-04-10T01:18:56.949Z,10.60
2023-04-10T01:19:56.918Z,8.40
2023-04-10T01:20:56.918Z,10.00
2023-04-10T01:21:56.917Z,11.00
2023-04-10T01:22:56.890Z,9.60
2023-04-10T01:23:56.997Z,9.10
2023-04-10T01:24:56.863Z,10.30
2023-04-10T01:25:56.917Z,10.40
2023-04-10T01:26:56.862Z,9.80
2023-04-10T01:27:56.835Z,10.10
2023-04-10T01:28:56.851Z,8.30
2023-04-10T01:29:56.827Z,9.10
2023-04-10T01:30:56.847Z,9.80
2023-04-10T01:31:56.807Z,10.80
2023-04-10T01:32:56.862Z,10.00
2023-04-10T01:33:57.090Z,8.70
2023-04-10T01:34:56.753Z,8.40
2023-04-10T01:35:56.818Z,9.60
2023-04-10T01:36:56.733Z,8.70
2023-04-10T01:37:56.771Z,9.70
2023-04-10T01:38:56.729Z,9.70
2023-04-10T01:39:56.714Z,10.30
2023-04-10T01:40:56.700Z,11.10
2023-04-10T01:41:56.693Z,10.50
2023-04-10T01:42:56.718Z,9.10
2023-04-10T01:43:56.692Z,10.10
2023-04-10T01:44:56.684Z,12.20
2023-04-10T01:45:56.669Z,9.70
2023-04-10T01:46:56.661Z,10.00
2023-04-10T01:47:56.688Z,9.30
2023-04-10T01:48:56.650Z,9.80
2023-04-10T01:49:56.615Z,13.40
2023-04-10T01:50:56.610Z,13.60
2023-04-10T01:51:56.583Z,15.00
2023-04-10T01:52:56.573Z,12.50
2023-04-10T01:53:56.586Z,12.30
2023-04-10T01:54:56.559Z,15.00
2023-04-10T01:55:56.569Z,13.00
2023-04-10T01:56:56.529Z,13.60
2023-04-10T01:57:56.556Z,12.60
2023-04-10T01:58:56.530Z,12.60
2023-04-10T01:59:56.522Z,10.90
2023-04-10T02:00:56.496Z,11.40
2023-04-10T02:01:56.607Z,11.90
2023-04-10T02:02:56.616Z,10.40
2023-04-10T02:03:56.907Z,13.70
2023-04-10T02:04:56.624Z,10.90
2023-04-10T02:05:56.439Z,11.80
2023-04-10T02:06:56.482Z,11.70
2023-04-10T02:07:56.422Z,13.80
2023-04-10T02:08:56.417Z,10.70
2023-04-10T02:09:56.408Z,10.60
2023-04-10T02:10:56.448Z,10.70
2023-04-10T02:11:56.383Z,10.80
2023-04-10T02:12:56.380Z,10.00
2023-04-10T02:13:56.400Z,10.90
2023-04-10T02:14:56.341Z,12.00
2023-04-10T02:15:56.362Z,11.80
2023-04-10T02:16:56.385Z,9.10
2023-04-10T02:17:56.341Z,9.00
2023-04-10T02:18:56.306Z,11.00
2023-04-10T02:19:56.303Z,11.60
2023-04-10T02:20:56.317Z,11.60
2023-04-10T02:21:56.277Z,11.00
2023-04-10T02:22:56.258Z,10.70
2023-04-10T02:23:56.368Z,9.60
2023-04-10T02:24:56.245Z,9.90
2023-04-10T02:25:56.241Z,10.80
2023-04-10T02:26:56.229Z,9.80
2023-04-10T02:27:56.217Z,11.30
2023-04-10T02:28:56.220Z,10.50
2023-04-10T02:29:56.183Z,10.10
2023-04-10T02:30:56.208Z,10.90
2023-04-10T02:31:56.189Z,10.00
2023-04-10T02:32:56.198Z,9.90
2023-04-10T02:33:56.327Z,9.80
2023-04-10T02:34:56.162Z,8.50
2023-04-10T02:35:56.191Z,11.10
2023-04-10T02:36:56.126Z,10.30
2023-04-10T02:37:56.132Z,9.90
2023-04-10T02:38:56.093Z,10.00
2023-04-10T02:39:56.080Z,11.40
2023-04-10T02:40:56.087Z,11.60
2023-04-10T02:41:56.056Z,10.20
2023-04-10T02:42:56.040Z,8.90
2023-04-10T02:43:56.060Z,10.20
2023-04-10T02:44:56.025Z,10.40
2023-04-10T02:45:56.053Z,10.60
2023-04-10T02:46:56.059Z,11.50
2023-04-10T02:47:56.039Z,10.90
2023-04-10T02:48:55.992Z,10.20
2023-04-10T02:49:56.004Z,9.30
2023-04-10T02:50:55.966Z,11.20
2023-04-10T02:51:55.960Z,10.90
2023-04-10T02:52:55.940Z,9.40
2023-04-10T02:53:56.123Z,8.30
2023-04-10T02:54:55.923Z,10.40
2023-04-10T02:55:55.933Z,12.00
2023-04-10T02:56:55.904Z,10.40
2023-04-10T02:57:55.885Z,8.90
2023-04-10T02:58:55.940Z,9.80
2023-04-10T02:59:55.878Z,8.20
2023-04-10T03:00:55.859Z,9.50
2023-04-10T03:01:55.898Z,10.00
2023-04-10T03:02:56.075Z,9.10
2023-04-10T03:03:56.076Z,10.20
2023-04-10T03:04:55.863Z,12.20
2023-04-10T03:05:55.819Z,7.80
2023-04-10T03:06:55.792Z,12.00
2023-04-10T03:07:55.808Z,9.90
2023-04-10T03:08:55.792Z,9.90
2023-04-10T03:09:55.765Z,9.40
2023-04-10T03:10:55.761Z,8.50
2023-04-10T03:11:55.747Z,10.70
2023-04-10T03:12:55.764Z,10.60
2023-04-10T03:13:55.944Z,11.50
2023-04-10T03:14:55.743Z,10.10
2023-04-10T03:15:55.742Z,9.80
2023-04-10T03:16:55.719Z,9.10
2023-04-10T03:17:55.698Z,9.00
2023-04-10T03:18:55.701Z,11.60
2023-04-10T03:19:55.668Z,8.60
2023-04-10T03:20:55.693Z,10.80
2023-04-10T03:21:55.661Z,9.70
2023-04-10T03:22:55.628Z,9.30
2023-04-10T03:23:55.973Z,7.70
2023-04-10T03:24:55.624Z,9.20
2023-04-10T03:25:55.607Z,9.40
2023-04-10T03:26:55.632Z,8.40
2023-04-10T03:27:55.601Z,9.30
2023-04-10T03:28:55.581Z,10.10
2023-04-10T03:29:55.629Z,9.20
2023-04-10T03:30:55.561Z,9.60
2023-04-10T03:31:55.549Z,8.80
2023-04-10T03:32:55.603Z,10.20
2023-04-10T03:33:55.864Z,8.60
2023-04-10T03:34:55.535Z,9.70
2023-04-10T03:35:55.555Z,11.30
2023-04-10T03:36:55.522Z,10.00
2023-04-10T03:37:55.507Z,10.10
2023-04-10T03:38:55.525Z,9.80
2023-04-10T03:39:55.505Z,9.10
2023-04-10T03:40:55.446Z,7.80
2023-04-10T03:41:55.463Z,9.60
2023-04-10T03:42:55.424Z,13.40
2023-04-10T03:43:55.614Z,10.40
2023-04-10T03:44:55.406Z,10.70
2023-04-10T03:45:55.390Z,9.90
2023-04-10T03:46:55.439Z,8.10
2023-04-10T03:47:55.420Z,10.90
2023-04-10T03:48:55.396Z,7.70
2023-04-10T03:49:55.347Z,9.60
2023-04-10T03:50:55.344Z,8.70
2023-04-10T03:51:55.340Z,10.00
2023-04-10T03:52:55.330Z,9.00
2023-04-10T03:53:55.553Z,8.60
2023-04-10T03:54:55.311Z,9.40
2023-04-10T03:55:55.285Z,10.30
2023-04-10T03:56:55.284Z,11.00
2023-04-10T03:57:55.258Z,9.20
2023-04-10T03:58:55.272Z,8.60
2023-04-10T03:59:55.232Z,8.50
2023-04-10T04:00:55.247Z,11.50
2023-04-10T04:01:55.282Z,8.90
2023-04-10T04:02:55.343Z,10.70
2023-04-10T04:03:55.734Z,9.40
2023-04-10T04:04:55.234Z,10.30
2023-04-10T04:05:55.160Z,8.80
2023-04-10T04:06:55.143Z,9.60
2023-04-10T04:07:55.111Z,10.00
2023-04-10T04:08:55.119Z,10.10
2023-04-10T04:09:56.479Z,10.60
2023-04-10T04:10:55.154Z,9.40
2023-04-10T04:11:55.100Z,9.60
2023-04-10T04:12:55.055Z,10.40
2023-04-10T04:13:55.249Z,9.30
2023-04-10T04:14:55.103Z,9.50
2023-04-10T04:15:55.032Z,8.60
2023-04-10T04:16:55.103Z,9.40
2023-04-10T04:17:55.034Z,8.50
2023-04-10T04:18:55.036Z,12.40
2023-04-10T04:19:55.013Z,11.10
2023-04-10T04:20:54.971Z,11.00
2023-04-10T04:21:54.974Z,8.20
2023-04-10T04:22:54.981Z,9.20
2023-04-10T04:23:55.115Z,11.50
2023-04-10T04:24:54.951Z,11.00
2023-04-10T04:25:54.930Z,9.90
2023-04-10T04:26:54.934Z,9.60
2023-04-10T04:27:54.926Z,9.30
2023-04-10T04:28:54.886Z,10.10
2023-04-10T04:29:54.895Z,9.70
2023-04-10T04:30:54.877Z,8.90
2023-04-10T04:31:54.912Z,9.00
2023-04-10T04:32:54.919Z,8.50
2023-04-10T04:33:55.029Z,11.60
2023-04-10T04:34:54.833Z,9.40
2023-04-10T04:35:54.877Z,9.30
2023-04-10T04:36:54.862Z,10.90
2023-04-10T04:37:54.804Z,10.50
2023-04-10T04:38:54.857Z,10.00
2023-04-10T04:39:54.811Z,7.80
2023-04-10T04:40:54.784Z,10.70
2023-04-10T04:41:54.762Z,8.60
2023-04-10T04:42:54.781Z,10.20
2023-04-10T04:43:54.917Z,9.10
2023-04-10T04:44:54.750Z,8.00
2023-04-10T04:45:54.723Z,8.30
2023-04-10T04:46:54.731Z,8.60
2023-04-10T04:47:54.770Z,8.10
2023-04-10T04:48:54.686Z,8.50
2023-04-10T04:49:54.693Z,8.70
2023-04-10T04:50:54.671Z,8.10
2023-04-10T04:51:54.664Z,8.60
2023-04-10T04:52:54.661Z,9.70
2023-04-10T04:53:54.791Z,8.40
2023-04-10T04:54:54.632Z,9.50
2023-04-10T04:55:54.604Z,8.00
2023-04-10T04:56:54.630Z,8.40
2023-04-10T04:57:54.617Z,8.90
2023-04-10T04:58:54.838Z,8.50
2023-04-10T04:59:54.598Z,8.40
2023-04-10T05:00:54.595Z,9.20
2023-04-10T05:01:54.682Z,9.60
2023-04-10T05:02:54.729Z,9.80
2023-04-10T05:03:54.648Z,9.10
2023-04-10T05:04:54.515Z,8.60
2023-04-10T05:05:54.524Z,8.50
2023-04-10T05:06:54.499Z,10.50
2023-04-10T05:07:54.501Z,8.80
2023-04-10T05:08:54.634Z,8.60
2023-04-10T05:09:54.455Z,8.50
2023-04-10T05:10:54.459Z,9.30
2023-04-10T05:11:54.518Z,8.30
2023-04-10T05:12:54.487Z,9.80
2023-04-10T05:13:54.446Z,10.80
2023-04-10T05:14:54.425Z,9.20
2023-04-10T05:15:54.462Z,8.40
2023-04-10T05:16:54.409Z,9.00
2023-04-10T05:17:54.460Z,9.90
2023-04-10T05:18:54.633Z,9.40
2023-04-10T05:19:54.397Z,9.80
2023-04-10T05:20:54.461Z,11.60
2023-04-10T05:21:54.379Z,10.60
2023-04-10T05:22:54.344Z,10.10
2023-04-10T05:23:54.408Z,8.60
2023-04-10T05:24:54.303Z,8.90
2023-04-10T05:25:54.307Z,8.60
2023-04-10T05:26:54.281Z,10.90
2023-04-10T05:27:54.279Z,9.90
2023-04-10T05:28:54.453Z,9.50
2023-04-10T05:29:54.257Z,7.80
2023-04-10T05:30:54.317Z,9.50
2023-04-10T05:31:54.245Z,8.80
2023-04-10T05:32:54.326Z,11.00
2023-04-10T05:33:54.217Z,8.60
2023-04-10T05:34:54.213Z,12.30
2023-04-10T05:35:54.244Z,9.50
2023-04-10T05:36:55.249Z,10.70
2023-04-10T05:37:54.177Z,9.60
2023-04-10T05:38:54.456Z,10.00
2023-04-10T05:39:54.145Z,9.00
2023-04-10T05:40:54.135Z,9.50
2023-04-10T05:41:54.138Z,9.30
2023-04-10T05:42:54.186Z,13.30
2023-04-10T05:43:54.130Z,11.50
2023-04-10T05:44:54.114Z,9.70
2023-04-10T05:45:54.122Z,9.40
2023-04-10T05:46:54.161Z,11.20
2023-04-10T05:47:54.114Z,9.60
2023-04-10T05:48:54.219Z,10.20
2023-04-10T05:49:54.067Z,9.60
2023-04-10T05:50:54.043Z,10.60
2023-04-10T05:51:54.052Z,9.70
2023-04-10T05:52:54.049Z,9.70
2023-04-10T05:53:54.042Z,9.10
2023-04-10T05:54:54.016Z,9.40
2023-04-10T05:55:54.057Z,9.70
2023-04-10T05:56:53.998Z,10.90
2023-04-10T05:57:53.974Z,12.40
2023-04-10T05:58:54.168Z,9.70
2023-04-10T05:59:53.943Z,11.40
2023-04-10T06:00:53.936Z,13.40
2023-04-10T06:01:54.050Z,13.20
2023-04-10T06:02:54.209Z,10.80
2023-04-10T06:03:53.997Z,11.40
2023-04-10T06:04:53.982Z,9.60
2023-04-10T06:05:53.901Z,9.60
2023-04-10T06:06:53.884Z,10.00
2023-04-10T06:07:54.804Z,8.80
2023-04-10T06:08:54.101Z,8.60
2023-04-10T06:09:53.858Z,9.40
2023-04-10T06:10:53.853Z,8.60
2023-04-10T06:11:53.847Z,9.30
2023-04-10T06:12:53.846Z,8.60
2023-04-10T06:13:53.830Z,10.20
2023-04-10T06:14:53.812Z,11.70
2023-04-10T06:15:53.799Z,11.20
2023-04-10T06:16:53.793Z,12.60
2023-04-10T06:17:53.808Z,8.90
2023-04-10T06:18:53.953Z,10.50
2023-04-10T06:19:53.754Z,12.70
2023-04-10T06:20:54.032Z,11.00
2023-04-10T06:21:54.579Z,11.50
2023-04-10T06:22:53.712Z,10.70
2023-04-10T06:23:53.958Z,10.70
2023-04-10T06:24:53.721Z,11.20
2023-04-10T06:25:53.704Z,10.20
2023-04-10T06:26:53.685Z,10.80
2023-04-10T06:27:53.682Z,12.30
2023-04-10T06:28:53.917Z,10.90
2023-04-10T06:29:53.666Z,12.00
2023-04-10T06:30:53.645Z,11.00
2023-04-10T06:31:53.679Z,11.00
2023-04-10T06:32:53.662Z,11.00
2023-04-10T06:33:53.644Z,10.00
2023-04-10T06:34:59.635Z,9.70
2023-04-10T06:35:53.629Z,9.40
2023-04-10T06:36:53.600Z,9.50
2023-04-10T06:37:53.566Z,11.30
2023-04-10T06:38:53.890Z,9.50
2023-04-10T06:39:53.542Z,11.20
2023-04-10T06:40:53.535Z,11.10
2023-04-10T06:41:53.555Z,9.80
2023-04-10T06:42:53.541Z,10.20
2023-04-10T06:43:53.529Z,10.40
2023-04-10T06:44:53.532Z,9.90
2023-04-10T06:45:53.489Z,9.10
2023-04-10T06:46:53.531Z,9.30
2023-04-10T06:47:53.464Z,10.20
2023-04-10T06:48:53.759Z,10.90
2023-04-10T06:49:53.461Z,9.30
2023-04-10T06:50:53.486Z,11.50
2023-04-10T06:51:53.445Z,9.80
2023-04-10T06:52:53.545Z,11.70
2023-04-10T06:53:53.415Z,10.20
2023-04-10T06:54:53.403Z,9.50
2023-04-10T06:55:53.404Z,9.60
2023-04-10T06:56:53.416Z,8.90
2023-04-10T06:57:53.358Z,9.50
2023-04-10T06:58:53.586Z,9.10
2023-04-10T06:59:53.372Z,8.60
2023-04-10T07:00:53.336Z,9.60
2023-04-10T07:01:53.398Z,11.10
2023-04-10T07:02:53.326Z,7.90
2023-04-10T07:03:53.357Z,10.50
2023-04-10T07:04:53.332Z,10.90
2023-04-10T07:05:53.268Z,9.00
2023-04-10T07:06:53.323Z,8.10
2023-04-10T07:07:53.271Z,9.20
2023-04-10T07:08:53.538Z,8.70
2023-04-10T07:09:53.237Z,10.30
2023-04-10T07:10:53.250Z,9.00
2023-04-10T07:11:53.215Z,8.00
2023-04-10T07:12:53.217Z,8.10
2023-04-10T07:13:53.228Z,8.80
2023-04-10T07:14:53.218Z,9.10
2023-04-10T07:15:53.225Z,7.80
2023-04-10T07:16:53.173Z,8.70
2023-04-10T07:17:53.177Z,7.30
2023-04-10T07:18:53.504Z,7.30
2023-04-10T07:19:53.156Z,9.40
2023-04-10T07:20:53.135Z,6.90
2023-04-10T07:21:53.112Z,7.00
2023-04-10T07:22:53.102Z,6.40
2023-04-10T07:23:53.116Z,7.80
2023-04-10T07:24:53.070Z,6.80
2023-04-10T07:25:53.082Z,6.90
2023-04-10T07:26:53.070Z,7.00
2023-04-10T07:27:53.060Z,7.30
2023-04-10T07:28:53.286Z,6.70
2023-04-10T07:29:53.051Z,6.80
2023-04-10T07:30:53.023Z,6.60
2023-04-10T07:31:53.123Z,7.70
2023-04-10T07:32:53.219Z,7.50
2023-04-10T07:33:53.013Z,6.20
2023-04-10T07:34:53.000Z,6.20
2023-04-10T07:35:53.076Z,7.20
2023-04-10T07:36:52.947Z,6.90
2023-04-10T07:37:52.948Z,6.00
2023-04-10T07:38:53.313Z,7.00
2023-04-10T07:39:52.945Z,5.20
2023-04-10T07:40:52.907Z,6.90
2023-04-10T07:41:52.928Z,7.30
2023-04-10T07:42:53.993Z,7.90
2023-04-10T07:43:52.906Z,7.50
2023-04-10T07:44:52.885Z,5.90
2023-04-10T07:45:52.984Z,5.70
2023-04-10T07:46:52.856Z,7.60
2023-04-10T07:47:52.906Z,6.40
2023-04-10T07:48:53.129Z,5.50
2023-04-10T07:49:52.814Z,6.30
2023-04-10T07:50:52.828Z,6.60
2023-04-10T07:51:52.809Z,7.30
2023-04-10T07:52:52.784Z,5.80
2023-04-10T07:53:52.791Z,6.40
2023-04-10T07:54:52.790Z,6.20
2023-04-10T07:55:52.765Z,7.80
2023-04-10T07:56:52.768Z,6.10
2023-04-10T07:57:52.760Z,8.10
2023-04-10T07:58:53.054Z,5.60
2023-04-10T07:59:52.716Z,6.80
2023-04-10T08:00:52.699Z,6.20
2023-04-10T08:01:52.778Z,6.70
2023-04-10T08:02:52.801Z,6.80
2023-04-10T08:03:52.938Z,6.80
2023-04-10T08:04:52.784Z,6.20
2023-04-10T08:05:52.665Z,5.90
2023-04-10T08:06:52.676Z,5.70
2023-04-10T08:07:52.641Z,5.60
2023-04-10T08:08:53.067Z,5.50
2023-04-10T08:09:52.637Z,4.90
2023-04-10T08:10:52.628Z,7.10
2023-04-10T08:11:52.593Z,6.10
2023-04-10T08:12:52.584Z,7.80
2023-04-10T08:13:52.587Z,6.00
2023-04-10T08:14:52.571Z,5.80
2023-04-10T08:15:52.565Z,5.70
2023-04-10T08:16:52.585Z,5.90
2023-04-10T08:17:52.574Z,5.40
2023-04-10T08:18:52.849Z,5.30
2023-04-10T08:19:52.540Z,6.50
2023-04-10T08:20:52.499Z,5.30
2023-04-10T08:21:52.513Z,5.70
2023-04-10T08:22:52.495Z,6.10
2023-04-10T08:23:52.502Z,7.00
2023-04-10T08:24:52.480Z,6.20
2023-04-10T08:25:52.484Z,5.30
2023-04-10T08:26:52.440Z,6.30
2023-04-10T08:27:52.425Z,5.90
2023-04-10T08:28:52.740Z,6.00
2023-04-10T08:29:52.400Z,4.80
2023-04-10T08:30:52.417Z,6.30
2023-04-10T08:31:52.397Z,6.30
2023-04-10T08:32:52.426Z,5.10
2023-04-10T08:33:52.476Z,6.10
2023-04-10T08:34:52.386Z,5.40
2023-04-10T08:35:52.391Z,6.60
2023-04-10T08:36:52.356Z,6.60
2023-04-10T08:38:07.642Z,8.50
2023-04-10T08:38:52.336Z,6.20
2023-04-10T08:39:52.309Z,7.40
2023-04-10T08:40:52.340Z,7.30
2023-04-10T08:41:52.407Z,5.40
2023-04-10T08:42:52.699Z,4.50
2023-04-10T08:43:52.356Z,5.20
2023-04-10T08:44:52.277Z,4.90
2023-04-10T08:45:52.319Z,5.20
2023-04-10T08:46:52.223Z,5.60
2023-04-10T08:47:52.278Z,5.70
2023-04-10T08:48:52.221Z,6.00
2023-04-10T08:49:52.210Z,4.30
2023-04-10T08:50:52.208Z,4.40
2023-04-10T08:51:52.185Z,5.90
2023-04-10T08:52:52.171Z,6.60
2023-04-10T08:53:52.530Z,4.70
2023-04-10T08:54:52.148Z,4.80
2023-04-10T08:55:52.141Z,5.00
2023-04-10T08:56:52.139Z,5.60
2023-04-10T08:58:00.719Z,5.80
2023-04-10T08:58:52.116Z,6.00
2023-04-10T08:59:52.113Z,5.70
2023-04-10T09:00:52.088Z,5.40
2023-04-10T09:01:52.201Z,5.70
2023-04-10T09:02:52.135Z,5.40
2023-04-10T09:03:52.135Z,4.80
2023-04-10T09:04:52.185Z,4.60
2023-04-10T09:05:52.026Z,6.50
2023-04-10T09:06:52.038Z,5.00
2023-04-10T09:07:52.017Z,5.00
2023-04-10T09:08:52.023Z,5.00
2023-04-10T09:09:52.017Z,4.40
2023-04-10T09:10:53.910Z,4.60
2023-04-10T09:11:52.031Z,4.30
2023-04-10T09:12:51.973Z,4.50
2023-04-10T09:13:51.958Z,4.50
2023-04-10T09:14:51.930Z,5.90
2023-04-10T09:15:51.996Z,4.50
2023-04-10T09:16:51.912Z,4.90
2023-04-10T09:17:52.014Z,5.20
2023-04-10T09:18:51.951Z,4.50
2023-04-10T09:19:51.886Z,4.90
2023-04-10T09:20:51.879Z,3.40
2023-04-10T09:21:51.913Z,4.30
2023-04-10T09:22:51.866Z,4.20
2023-04-10T09:23:51.855Z,5.50
2023-04-10T09:24:51.843Z,4.80
2023-04-10T09:25:51.872Z,3.90
2023-04-10T09:26:51.809Z,6.00
2023-04-10T09:27:51.813Z,5.60
2023-04-10T09:28:51.817Z,5.50
2023-04-10T09:29:51.801Z,5.30
2023-04-10T09:30:51.824Z,4.00
2023-04-10T09:31:51.802Z,4.10
2023-04-10T09:32:51.779Z,4.50
2023-04-10T09:33:51.794Z,4.20
2023-04-10T09:34:51.740Z,4.00
2023-04-10T09:35:51.723Z,5.10
2023-04-10T09:36:51.702Z,5.40
2023-04-10T09:37:51.706Z,4.80
2023-04-10T09:38:51.715Z,4.00
2023-04-10T09:39:51.674Z,4.80
2023-04-10T09:40:53.648Z,4.00
2023-04-10T09:41:51.708Z,4.60
2023-04-10T09:42:51.660Z,4.20
2023-04-10T09:43:51.674Z,4.00
2023-04-10T09:44:51.617Z,4.40
2023-04-10T09:45:51.623Z,5.00
2023-04-10T09:46:51.677Z,4.40
2023-04-10T09:47:51.628Z,3.90
2023-04-10T09:48:51.599Z,4.50
2023-04-10T09:49:51.580Z,4.00
2023-04-10T09:50:51.613Z,4.10
2023-04-10T09:51:51.560Z,4.60
2023-04-10T09:52:51.564Z,5.30
2023-04-10T09:53:51.564Z,4.10
2023-04-10T09:54:51.523Z,4.50
2023-04-10T09:55:51.526Z,5.90
2023-04-10T09:56:51.506Z,5.10
2023-04-10T09:57:51.507Z,4.00
2023-04-10T09:58:51.544Z,4.50
2023-04-10T09:59:51.479Z,3.60
2023-04-10T10:00:51.494Z,4.40
2023-04-10T10:01:51.536Z,3.50
2023-04-10T10:02:51.574Z,3.40
2023-04-10T10:03:51.583Z,2.70
2023-04-10T10:04:51.427Z,3.60
2023-04-10T10:05:51.415Z,3.60
2023-04-10T10:06:51.390Z,3.80
2023-04-10T10:07:51.385Z,3.70
2023-04-10T10:08:51.412Z,3.50
2023-04-10T10:09:51.408Z,4.80
2023-04-10T10:10:51.378Z,3.80
2023-04-10T10:11:51.342Z,3.70
2023-04-10T10:12:51.324Z,5.20
2023-04-10T10:13:51.390Z,4.80
2023-04-10T10:14:51.311Z,2.90
2023-04-10T10:15:51.332Z,4.50
2023-04-10T10:16:51.295Z,4.70
2023-04-10T10:17:51.356Z,3.60
2023-04-10T10:18:51.296Z,4.00
2023-04-10T10:19:51.278Z,3.50
2023-04-10T10:20:51.267Z,4.60
2023-04-10T10:21:51.242Z,4.30
2023-04-10T10:22:51.287Z,4.30
2023-04-10T10:23:51.246Z,3.90
2023-04-10T10:24:51.267Z,4.30
2023-04-10T10:25:51.217Z,3.90
2023-04-10T10:26:51.195Z,3.50
2023-04-10T10:27:51.209Z,4.20
2023-04-10T10:28:51.213Z,4.20
2023-04-10T10:29:51.181Z,3.10
2023-04-10T10:30:51.162Z,3.50
2023-04-10T10:31:51.177Z,4.40
2023-04-10T10:32:51.214Z,3.90
2023-04-10T10:33:51.153Z,3.90
2023-04-10T10:34:51.120Z,3.50
2023-04-10T10:35:51.101Z,3.10
2023-04-10T10:36:51.140Z,3.70
2023-04-10T10:37:51.111Z,3.70
2023-04-10T10:38:51.173Z,3.60
2023-04-10T10:39:51.090Z,3.00
2023-04-10T10:40:51.076Z,2.80
2023-04-10T10:41:51.047Z,2.90
2023-04-10T10:42:51.027Z,3.00
2023-04-10T10:43:51.050Z,3.20
2023-04-10T10:44:51.010Z,3.80
2023-04-10T10:45:51.123Z,3.50
2023-04-10T10:46:51.006Z,3.50
2023-04-10T10:47:50.999Z,3.70
2023-04-10T10:48:50.987Z,2.60
2023-04-10T10:49:50.961Z,2.30
2023-04-10T10:50:50.946Z,3.90
2023-04-10T10:51:50.959Z,3.30
2023-04-10T10:52:50.930Z,2.70
2023-04-10T10:53:50.939Z,3.60
2023-04-10T10:54:59.201Z,2.20
2023-04-10T10:55:50.928Z,2.70
2023-04-10T10:56:50.896Z,2.50
2023-04-10T10:57:50.890Z,2.80
2023-04-10T10:58:50.904Z,3.60
2023-04-10T10:59:50.851Z,2.30
2023-04-10T11:00:50.950Z,3.40
2023-04-10T11:01:51.016Z,2.50
2023-04-10T11:02:51.002Z,3.00
2023-04-10T11:03:51.101Z,2.60
2023-04-10T11:04:50.816Z,2.50
2023-04-10T11:05:50.827Z,2.60
2023-04-10T11:06:50.799Z,2.80
2023-04-10T11:07:50.782Z,3.20
2023-04-10T11:08:50.787Z,2.80
2023-04-10T11:09:50.769Z,3.10
2023-04-10T11:10:50.743Z,2.70
2023-04-10T11:11:50.729Z,3.10
2023-04-10T11:12:50.709Z,3.10
2023-04-10T11:13:50.750Z,2.70
2023-04-10T11:14:50.695Z,2.70
2023-04-10T11:15:50.697Z,2.60
2023-04-10T11:16:50.824Z,2.60
2023-04-10T11:17:50.698Z,2.70
2023-04-10T11:18:59.334Z,2.10
2023-04-10T11:19:50.661Z,3.00
2023-04-10T11:20:50.651Z,3.30
2023-04-10T11:21:50.634Z,2.30
2023-04-10T11:22:50.623Z,2.20
2023-04-10T11:23:50.647Z,3.10
2023-04-10T11:24:50.595Z,2.30
2023-04-10T11:25:50.598Z,1.90
2023-04-10T11:26:50.582Z,1.90
2023-04-10T11:27:50.591Z,3.20
2023-04-10T11:28:50.574Z,2.80
2023-04-10T11:29:50.555Z,2.70
2023-04-10T11:30:50.548Z,2.70
2023-04-10T11:31:50.554Z,3.30
2023-04-10T11:32:50.556Z,2.50
2023-04-10T11:33:50.525Z,2.90
2023-04-10T11:34:50.503Z,2.30
2023-04-10T11:35:50.492Z,2.70
2023-04-10T11:36:50.503Z,3.20
2023-04-10T11:37:50.491Z,2.50
2023-04-10T11:38:50.472Z,2.20
2023-04-10T11:39:50.456Z,2.50
2023-04-10T11:40:50.455Z,1.80
2023-04-10T11:41:50.426Z,2.10
2023-04-10T11:42:50.413Z,3.30
2023-04-10T11:43:50.430Z,2.70
2023-04-10T11:44:50.410Z,2.50
2023-04-10T11:45:50.489Z,2.60
2023-04-10T11:46:50.365Z,2.30
2023-04-10T11:47:50.420Z,2.40
2023-04-10T11:48:50.355Z,2.50
2023-04-10T11:49:50.341Z,2.20
2023-04-10T11:50:50.322Z,1.90
2023-04-10T11:51:50.323Z,2.40
2023-04-10T11:52:50.306Z,2.50
2023-04-10T11:53:50.304Z,2.40
2023-04-10T11:54:50.326Z,2.30
2023-04-10T11:55:50.274Z,2.70
2023-04-10T11:56:50.287Z,2.30
2023-04-10T11:57:50.270Z,1.40
2023-04-10T11:58:50.291Z,1.90
2023-04-10T11:59:50.253Z,2.00
2023-04-10T12:00:50.227Z,2.40
2023-04-10T12:01:50.266Z,3.40
2023-04-10T12:02:50.500Z,2.10
2023-04-10T12:03:50.333Z,2.10
2023-04-10T12:04:50.252Z,2.80
2023-04-10T12:05:50.182Z,2.20
2023-04-10T12:06:50.171Z,2.80
2023-04-10T12:07:50.178Z,2.30
2023-04-10T12:08:50.150Z,6.40
2023-04-10T12:09:50.135Z,1.50
2023-04-10T12:10:50.122Z,3.40
2023-04-10T12:11:50.121Z,23.20
2023-04-10T12:12:50.092Z,6.00
2023-04-10T12:13:50.113Z,1.70
2023-04-10T12:14:50.085Z,7.00
2023-04-10T12:15:50.119Z,8.60
2023-04-10T12:16:50.113Z,4.80
2023-04-10T12:17:50.099Z,5.70
2023-04-10T12:18:50.059Z,5.20
2023-04-10T12:19:50.037Z,2.20
2023-04-10T12:20:50.032Z,14.90
2023-04-10T12:21:50.017Z,4.90
2023-04-10T12:22:50.023Z,8.80
2023-04-10T12:23:50.037Z,5.80
2023-04-10T12:24:49.994Z,4.30
2023-04-10T12:25:49.952Z,2.80
2023-04-10T12:26:49.955Z,1.90
2023-04-10T12:27:49.957Z,2.10
2023-04-10T12:28:49.948Z,2.00
2023-04-10T12:29:49.933Z,2.40
2023-04-10T12:30:49.955Z,0.90
2023-04-10T12:31:49.891Z,1.60
2023-04-10T12:32:49.945Z,1.10
2023-04-10T12:33:49.921Z,1.20
2023-04-10T12:34:49.892Z,1.80
2023-04-10T12:35:49.893Z,1.20
2023-04-10T12:36:49.856Z,1.10
2023-04-10T12:37:49.846Z,1.50
2023-04-10T12:38:49.843Z,2.30
2023-04-10T12:39:49.867Z,2.00
2023-04-10T12:40:49.825Z,1.10
2023-04-10T12:41:49.800Z,2.50
2023-04-10T12:42:49.797Z,1.80
2023-04-10T12:43:49.804Z,2.10
2023-04-10T12:44:49.785Z,1.70
2023-04-10T12:45:49.759Z,3.00
2023-04-10T12:46:49.821Z,2.90
2023-04-10T12:47:49.767Z,1.90
2023-04-10T12:48:49.748Z,1.60
2023-04-10T12:49:49.734Z,2.90
2023-04-10T12:50:49.755Z,1.50
2023-04-10T12:51:49.697Z,4.20
2023-04-10T12:52:49.715Z,1.50
2023-04-10T12:53:49.685Z,2.40
2023-04-10T12:54:49.690Z,1.70
2023-04-10T12:55:49.674Z,1.90
2023-04-10T12:56:49.646Z,1.90
2023-04-10T12:57:49.639Z,1.40
2023-04-10T12:58:49.641Z,1.20
2023-04-10T12:59:49.630Z,1.30
2023-04-10T13:00:49.616Z,1.50
2023-04-10T13:01:49.651Z,1.50
2023-04-10T13:02:49.769Z,2.20
2023-04-10T13:03:49.630Z,1.50
2023-04-10T13:04:49.617Z,2.50
2023-04-10T13:05:49.549Z,1.90
2023-04-10T13:06:49.573Z,2.40
2023-04-10T13:07:49.543Z,2.80
2023-04-10T13:08:49.540Z,1.50
2023-04-10T13:09:49.538Z,1.50
2023-04-10T13:10:49.511Z,1.20
2023-04-10T13:11:51.527Z,1.70